createdAt,value
2023-04-17T00:02:13.777Z,99775.22
2023-04-17T00:04:41.253Z,99778.59
2023-04-17T00:07:08.129Z,99776.91
2023-04-17T00:09:34.816Z,99774.75
2023-04-17T00:12:01.420Z,99770.50
2023-04-17T00:14:28.246Z,99775.66
2023-04-17T00:16:55.173Z,99764.66
2023-04-17T00:19:21.833Z,99768.78
2023-04-17T00:21:48.431Z,99771.25
2023-04-17T00:24:15.027Z,99773.16
2023-04-17T00:26:41.747Z,99768.88
2023-04-17T00:29:08.367Z,99766.81
2023-04-17T00:31:35.002Z,99773.72
2023-04-17T00:34:01.887Z,99770.53
2023-04-17T00:36:30.732Z,99768.97
2023-04-17T00:38:58.470Z,99763.97
2023-04-17T00:41:25.064Z,99765.63
2023-04-17T00:43:51.642Z,99767.03
2023-04-17T00:46:18.648Z,99768.63
2023-04-17T00:48:45.706Z,99765.63
2023-04-17T00:51:12.453Z,99769.00
2023-04-17T00:53:39.689Z,99765.69
2023-04-17T00:56:06.979Z,99772.53
2023-04-17T00:58:36.366Z,99766.63
2023-04-17T01:01:04.940Z,99763.50
2023-04-17T01:03:32.947Z,99763.03
2023-04-17T01:05:59.704Z,99766.50
2023-04-17T01:08:26.331Z,99760.88
2023-04-17T01:10:53.210Z,99760.13
2023-04-17T01:13:19.985Z,99762.81
2023-04-17T01:15:46.764Z,99762.81
2023-04-17T01:18:13.419Z,99764.56
2023-04-17T01:20:40.068Z,99760.31
2023-04-17T01:23:06.749Z,99756.41
2023-04-17T01:25:33.557Z,99753.50
2023-04-17T01:28:00.199Z,99754.28
2023-04-17T01:30:29.903Z,99747.47
2023-04-17T01:32:56.540Z,99759.94
2023-04-17T01:35:23.590Z,99757.53
2023-04-17T01:37:50.466Z,99756.50
2023-04-17T01:40:17.047Z,99750.88
2023-04-17T01:42:43.842Z,99745.34
2023-04-17T01:45:10.578Z,99749.50
2023-04-17T01:47:37.209Z,99747.88
2023-04-17T01:50:04.195Z,99744.34
2023-04-17T01:52:30.829Z,99750.63
2023-04-17T01:54:57.500Z,99751.28
2023-04-17T01:57:24.370Z,99752.25
2023-04-17T01:59:51.219Z,99746.06
2023-04-17T02:02:17.994Z,99745.19
2023-04-17T02:04:44.715Z,99754.91
2023-04-17T02:07:11.869Z,99750.28
2023-04-17T02:09:38.568Z,99749.63
2023-04-17T02:12:05.569Z,99751.47
2023-04-17T02:14:32.181Z,99752.09
2023-04-17T02:16:58.990Z,99752.75
2023-04-17T02:19:25.608Z,99750.94
2023-04-17T02:21:52.192Z,99752.25
2023-04-17T02:24:18.879Z,99754.50
2023-04-17T02:26:45.734Z,99746.75
2023-04-17T02:29:12.591Z,99752.03
2023-04-17T02:31:40.668Z,99745.09
2023-04-17T02:34:07.405Z,99747.81
2023-04-17T02:36:34.162Z,99741.97
2023-04-17T02:39:00.861Z,99752.25
2023-04-17T02:41:27.493Z,99748.81
2023-04-17T02:43:54.253Z,99742.53
2023-04-17T02:46:20.882Z,99747.03
2023-04-17T02:48:47.591Z,99745.03
2023-04-17T02:51:14.237Z,99748.25
2023-04-17T02:53:40.880Z,99747.59
2023-04-17T02:56:08.176Z,99754.56
2023-04-17T02:58:34.996Z,99749.31
2023-04-17T03:01:03.005Z,99749.56
2023-04-17T03:03:29.857Z,99753.16
2023-04-17T03:05:57.275Z,99755.78
2023-04-17T03:08:24.663Z,99754.31
2023-04-17T03:10:51.254Z,99753.31
2023-04-17T03:13:18.040Z,99761.41
2023-04-17T03:15:44.743Z,99749.28
2023-04-17T03:18:11.356Z,99754.50
2023-04-17T03:20:38.018Z,99750.31
2023-04-17T03:23:04.756Z,99755.31
2023-04-17T03:25:31.393Z,99749.72
2023-04-17T03:27:57.976Z,99755.78
2023-04-17T03:30:25.125Z,99761.13
2023-04-17T03:32:51.829Z,99755.56
2023-04-17T03:35:18.655Z,99754.81
2023-04-17T03:37:45.330Z,99763.84
2023-04-17T03:40:12.054Z,99761.22
2023-04-17T03:42:38.915Z,99767.38
2023-04-17T03:45:06.121Z,99772.88
2023-04-17T03:47:32.781Z,99763.41
2023-04-17T03:49:59.471Z,99769.88
2023-04-17T03:52:26.225Z,99771.06
2023-04-17T03:54:52.940Z,99774.03
2023-04-17T03:57:19.584Z,99775.31
2023-04-17T03:59:46.193Z,99765.84
2023-04-17T04:02:13.013Z,99778.91
2023-04-17T04:04:40.216Z,99781.50
2023-04-17T04:07:06.912Z,99775.72
2023-04-17T04:09:33.533Z,99781.22
2023-04-17T04:12:00.286Z,99784.50
2023-04-17T04:14:27.031Z,99787.09
2023-04-17T04:16:53.639Z,99789.50
2023-04-17T04:19:20.270Z,99785.56
2023-04-17T04:21:47.010Z,99792.59
2023-04-17T04:24:13.660Z,99794.59
2023-04-17T04:26:40.400Z,99802.69
2023-04-17T04:29:07.555Z,99798.97
2023-04-17T04:31:34.660Z,99803.22
2023-04-17T04:34:01.349Z,99805.50
2023-04-17T04:36:28.103Z,99804.44
2023-04-17T04:38:54.795Z,99810.56
2023-04-17T04:41:21.432Z,99814.06
2023-04-17T04:43:48.282Z,99815.13
2023-04-17T04:46:15.058Z,99817.19
2023-04-17T04:48:42.849Z,99825.34
2023-04-17T04:51:09.832Z,99832.44
2023-04-17T04:53:36.499Z,99824.38
2023-04-17T04:56:03.367Z,99837.47
2023-04-17T04:58:29.945Z,99837.38
2023-04-17T05:00:56.768Z,99834.44
2023-04-17T05:03:23.621Z,99833.16
2023-04-17T05:05:50.596Z,99833.78
2023-04-17T05:08:17.306Z,99834.06
2023-04-17T05:10:44.146Z,99830.66
2023-04-17T05:13:10.792Z,99832.09
2023-04-17T05:15:37.445Z,99832.41
2023-04-17T05:18:04.123Z,99836.09
2023-04-17T05:20:30.772Z,99830.13
2023-04-17T05:22:57.453Z,99835.91
2023-04-17T05:25:24.571Z,99837.31
2023-04-17T05:27:51.360Z,99838.06
2023-04-17T05:30:18.176Z,99832.75
2023-04-17T05:32:44.860Z,99833.66
2023-04-17T05:35:11.486Z,99833.09
2023-04-17T05:37:40.242Z,99837.59
2023-04-17T05:40:07.816Z,99839.84
2023-04-17T05:42:34.763Z,99837.00
2023-04-17T05:45:01.542Z,99845.00
2023-04-17T05:47:28.251Z,99849.25
2023-04-17T05:49:55.057Z,99844.81
2023-04-17T05:52:21.772Z,99852.97
2023-04-17T05:54:48.409Z,99845.09
2023-04-17T05:57:15.131Z,99849.25
2023-04-17T05:59:41.794Z,99850.72
2023-04-17T06:02:08.531Z,99853.75
2023-04-17T06:04:35.511Z,99851.91
2023-04-17T06:07:02.373Z,99848.78
2023-04-17T06:09:29.182Z,99852.72
2023-04-17T06:11:55.870Z,99853.09
2023-04-17T06:14:22.504Z,99856.63
2023-04-17T06:16:49.260Z,99858.94
2023-04-17T06:19:16.003Z,99863.38
2023-04-17T06:21:42.649Z,99860.75
2023-04-17T06:24:09.310Z,99860.16
2023-04-17T06:26:35.931Z,99868.44
2023-04-17T06:29:02.531Z,99858.66
2023-04-17T06:31:29.292Z,99862.19
2023-04-17T06:33:56.085Z,99867.16
2023-04-17T06:36:22.723Z,99861.16
2023-04-17T06:38:49.668Z,99868.38
2023-04-17T06:41:16.425Z,99872.19
2023-04-17T06:43:43.151Z,99865.97
2023-04-17T06:46:09.863Z,99866.66
2023-04-17T06:48:36.750Z,99876.06
2023-04-17T06:51:03.622Z,99880.88
2023-04-17T06:53:30.362Z,99883.16
2023-04-17T06:55:56.953Z,99880.31
2023-04-17T06:58:23.667Z,99884.75
2023-04-17T07:00:50.446Z,99883.06
2023-04-17T07:03:17.259Z,99881.09
2023-04-17T07:05:44.573Z,99881.13
2023-04-17T07:08:11.393Z,99888.88
2023-04-17T07:10:37.997Z,99889.41
2023-04-17T07:13:04.717Z,99892.72
2023-04-17T07:15:31.420Z,99902.75
2023-04-17T07:17:58.222Z,99891.53
2023-04-17T07:20:24.946Z,99889.31
2023-04-17T07:22:51.665Z,99888.84
2023-04-17T07:25:18.446Z,99887.69
2023-04-17T07:27:45.165Z,99883.59
2023-04-17T07:30:12.040Z,99881.88
2023-04-17T07:32:38.674Z,99886.28
2023-04-17T07:35:05.734Z,99886.22
2023-04-17T07:37:34.326Z,99891.16
2023-04-17T07:40:00.996Z,99899.66
2023-04-17T07:42:27.672Z,99891.78
2023-04-17T07:44:54.268Z,99904.13
2023-04-17T07:47:21.028Z,99892.84
2023-04-17T07:49:47.763Z,99894.44
2023-04-17T07:52:15.095Z,99896.13
2023-04-17T07:54:41.871Z,99899.09
2023-04-17T07:57:08.498Z,99895.84
2023-04-17T07:59:35.182Z,99900.53
2023-04-17T08:02:01.900Z,99904.25
2023-04-17T08:04:28.719Z,99906.22
2023-04-17T08:06:55.482Z,99905.75
2023-04-17T08:09:22.140Z,99911.59
2023-04-17T08:11:57.096Z,99902.34
2023-04-17T08:14:24.727Z,99902.38
2023-04-17T08:16:51.582Z,99893.00
2023-04-17T08:19:18.252Z,99899.81
2023-04-17T08:21:47.421Z,99903.31
2023-04-17T08:24:14.132Z,99908.50
2023-04-17T08:26:40.732Z,99911.44
2023-04-17T08:29:07.467Z,99904.75
2023-04-17T08:31:34.211Z,99903.47
2023-04-17T08:34:12.811Z,99908.97
2023-04-17T08:36:41.203Z,99906.81
2023-04-17T08:39:07.959Z,99902.03
2023-04-17T08:41:42.273Z,99905.28
2023-04-17T08:44:08.987Z,99901.22
2023-04-17T08:46:36.546Z,99899.09
2023-04-17T08:49:03.319Z,99899.38
2023-04-17T08:51:30.029Z,99899.38
2023-04-17T08:53:56.823Z,99900.53
2023-04-17T08:56:23.434Z,99897.00
2023-04-17T08:58:50.216Z,99896.31
2023-04-17T09:01:16.901Z,99889.78
2023-04-17T09:03:45.655Z,99898.88
2023-04-17T09:06:14.062Z,99893.91
2023-04-17T09:08:55.555Z,99893.19
2023-04-17T09:11:22.603Z,99895.19
2023-04-17T09:13:49.344Z,99905.41
2023-04-17T09:16:16.071Z,99897.25
2023-04-17T09:18:43.200Z,99900.75
2023-04-17T09:21:10.386Z,99893.78
2023-04-17T09:23:56.584Z,99899.66
2023-04-17T09:26:25.687Z,99900.41
2023-04-17T09:29:06.459Z,99896.31
2023-04-17T09:31:36.788Z,99894.78
2023-04-17T09:34:06.194Z,99901.19
2023-04-17T09:36:37.233Z,99900.34
2023-04-17T09:39:22.920Z,99898.56
2023-04-17T09:41:50.264Z,99903.16
2023-04-17T09:44:27.710Z,99887.41
2023-04-17T09:46:54.691Z,99894.44
2023-04-17T09:49:40.285Z,99891.69
2023-04-17T09:52:07.147Z,99896.63
2023-04-17T09:54:34.660Z,99892.88
2023-04-17T09:57:01.536Z,99904.97
2023-04-17T09:59:28.785Z,99899.56
2023-04-17T10:01:55.697Z,99899.25
2023-04-17T10:04:22.960Z,99893.03
2023-04-17T10:06:50.114Z,99881.56
2023-04-17T10:09:16.796Z,99894.25
2023-04-17T10:11:47.942Z,99891.75
2023-04-17T10:14:22.888Z,99889.72
2023-04-17T10:16:49.582Z,99886.88
2023-04-17T10:19:36.557Z,99883.78
2023-04-17T10:22:18.211Z,99883.97
2023-04-17T10:24:49.895Z,99884.03
2023-04-17T10:27:25.755Z,99887.59
2023-04-17T10:29:56.574Z,99880.84
2023-04-17T10:32:24.654Z,99883.34
2023-04-17T10:34:53.044Z,99884.13
2023-04-17T10:37:20.625Z,99876.84
2023-04-17T10:39:53.121Z,99880.38
2023-04-17T10:42:21.117Z,99873.63
2023-04-17T10:44:48.750Z,99869.91
2023-04-17T10:47:20.860Z,99874.78
2023-04-17T10:50:08.250Z,99869.94
2023-04-17T10:52:38.623Z,99871.28
2023-04-17T10:55:23.380Z,99873.34
2023-04-17T10:57:58.891Z,99870.59
2023-04-17T11:00:49.232Z,99863.72
2023-04-17T11:03:16.842Z,99869.88
2023-04-17T11:05:47.211Z,99870.19
2023-04-17T11:08:14.380Z,99860.56
2023-04-17T11:10:41.218Z,99867.19
2023-04-17T11:13:07.919Z,99867.03
2023-04-17T11:15:35.463Z,99860.75
2023-04-17T11:18:03.906Z,99861.06
2023-04-17T11:20:33.225Z,99862.84
2023-04-17T11:23:04.537Z,99861.47
2023-04-17T11:25:32.553Z,99859.19
2023-04-17T11:28:01.889Z,99860.72
2023-04-17T11:30:33.420Z,99858.41
2023-04-17T11:33:05.741Z,99859.47
2023-04-17T11:35:35.295Z,99860.09
2023-04-17T11:38:05.830Z,99858.09
2023-04-17T11:40:32.671Z,99863.25
2023-04-17T11:43:08.963Z,99859.44
2023-04-17T11:45:37.060Z,99853.69
2023-04-17T11:48:04.443Z,99862.78
2023-04-17T11:50:32.459Z,99865.13
2023-04-17T11:53:05.259Z,99865.56
2023-04-17T11:55:34.989Z,99862.56
2023-04-17T11:58:06.003Z,99863.06
2023-04-17T12:00:33.037Z,99857.66
2023-04-17T12:03:02.804Z,99865.28
2023-04-17T12:05:30.959Z,99860.75
2023-04-17T12:08:01.513Z,99864.47
2023-04-17T12:10:41.314Z,99866.38
2023-04-17T12:13:09.289Z,99865.19
2023-04-17T12:15:36.346Z,99863.00
2023-04-17T12:18:04.405Z,99868.56
2023-04-17T12:20:35.568Z,99862.78
2023-04-17T12:23:03.192Z,99860.13
2023-04-17T12:25:30.642Z,99865.91
2023-04-17T12:27:57.513Z,99860.34
2023-04-17T12:30:24.240Z,99857.88
2023-04-17T12:32:50.980Z,99861.06
2023-04-17T12:35:21.899Z,99866.81
2023-04-17T12:37:50.099Z,99861.50
2023-04-17T12:40:23.834Z,99854.50
2023-04-17T12:42:51.379Z,99853.34
2023-04-17T12:45:18.489Z,99854.09
2023-04-17T12:47:45.329Z,99844.66
2023-04-17T12:50:12.554Z,99846.88
2023-04-17T12:52:40.057Z,99845.53
2023-04-17T12:55:07.752Z,99846.84
2023-04-17T12:57:35.472Z,99839.16
2023-04-17T13:00:02.462Z,99841.13
2023-04-17T13:02:29.255Z,99836.25
2023-04-17T13:04:56.111Z,99836.56
2023-04-17T13:07:22.998Z,99838.94
2023-04-17T13:09:49.817Z,99835.63
2023-04-17T13:12:16.470Z,99832.03
2023-04-17T13:14:43.064Z,99833.38
2023-04-17T13:17:09.848Z,99823.97
2023-04-17T13:19:36.563Z,99825.97
2023-04-17T13:22:03.347Z,99827.69
2023-04-17T13:24:30.140Z,99819.13
2023-04-17T13:26:59.633Z,99817.25
2023-04-17T13:29:26.305Z,99817.13
2023-04-17T13:31:53.060Z,99825.94
2023-04-17T13:34:19.994Z,99815.59
2023-04-17T13:36:47.464Z,99821.44
2023-04-17T13:39:14.608Z,99824.41
2023-04-17T13:41:41.365Z,99827.69
2023-04-17T13:44:08.116Z,99819.63
2023-04-17T13:46:34.966Z,99819.31
2023-04-17T13:49:01.562Z,99817.66
2023-04-17T13:51:28.211Z,99813.41
2023-04-17T13:53:55.652Z,99822.13
2023-04-17T13:56:22.268Z,99817.47
2023-04-17T13:58:48.863Z,99817.72
2023-04-17T14:01:15.551Z,99815.91
2023-04-17T14:03:44.588Z,99815.22
2023-04-17T14:06:12.921Z,99815.66
2023-04-17T14:08:40.645Z,99819.88
2023-04-17T14:11:08.001Z,99810.41
2023-04-17T14:13:34.763Z,99812.81
2023-04-17T14:16:01.632Z,99809.81
2023-04-17T14:18:28.351Z,99804.50
2023-04-17T14:20:54.971Z,99804.28
2023-04-17T14:23:21.947Z,99802.63
2023-04-17T14:25:48.524Z,99799.88
2023-04-17T14:28:15.146Z,99793.50
2023-04-17T14:30:41.743Z,99794.66
2023-04-17T14:33:08.443Z,99788.44
2023-04-17T14:35:35.019Z,99792.66
2023-04-17T14:38:01.749Z,99787.34
2023-04-17T14:40:28.341Z,99783.97
2023-04-17T14:42:55.038Z,99783.94
2023-04-17T14:45:21.866Z,99784.59
2023-04-17T14:47:48.662Z,99784.38
2023-04-17T14:50:15.276Z,99774.34
2023-04-17T14:52:42.050Z,99774.25
2023-04-17T14:55:09.294Z,99777.88
2023-04-17T14:57:36.031Z,99788.03
2023-04-17T15:00:02.912Z,99787.69
2023-04-17T15:02:29.931Z,99786.84
2023-04-17T15:04:56.634Z,99788.53
2023-04-17T15:07:23.227Z,99779.84
2023-04-17T15:09:49.837Z,99782.44
2023-04-17T15:12:16.432Z,99784.06
2023-04-17T15:14:43.073Z,99784.28
2023-04-17T15:17:09.754Z,99784.44
2023-04-17T15:19:36.373Z,99780.72
2023-04-17T15:22:03.154Z,99781.63
2023-04-17T15:24:31.542Z,99780.94
2023-04-17T15:26:58.179Z,99780.56
2023-04-17T15:29:24.830Z,99771.41
2023-04-17T15:31:51.458Z,99772.09
2023-04-17T15:34:18.447Z,99773.56
2023-04-17T15:36:45.063Z,99782.59
2023-04-17T15:39:11.930Z,99779.03
2023-04-17T15:41:41.971Z,99792.97
2023-04-17T15:44:08.582Z,99785.09
2023-04-17T15:46:35.307Z,99786.06
2023-04-17T15:49:08.749Z,99782.72
2023-04-17T15:51:35.710Z,99789.13
2023-04-17T15:54:02.413Z,99794.25
2023-04-17T15:56:29.069Z,99786.00
2023-04-17T15:58:55.700Z,99788.22
2023-04-17T16:01:25.398Z,99788.34
2023-04-17T16:03:52.443Z,99786.66
2023-04-17T16:06:19.304Z,99787.97
2023-04-17T16:08:46.650Z,99781.63
2023-04-17T16:11:13.225Z,99778.97
2023-04-17T16:13:39.932Z,99790.66
2023-04-17T16:16:06.778Z,99786.59
2023-04-17T16:18:33.488Z,99790.22
2023-04-17T16:21:00.128Z,99784.25
2023-04-17T16:23:26.905Z,99788.69
2023-04-17T16:25:53.566Z,99792.31
2023-04-17T16:28:20.197Z,99794.75
2023-04-17T16:30:46.830Z,99796.06
2023-04-17T16:33:13.552Z,99791.34
2023-04-17T16:35:40.191Z,99794.56
2023-04-17T16:38:06.778Z,99789.56
2023-04-17T16:40:33.487Z,99789.16
2023-04-17T16:43:00.165Z,99799.91
2023-04-17T16:45:26.760Z,99803.34
2023-04-17T16:47:53.429Z,99799.22
2023-04-17T16:50:20.174Z,99790.47
2023-04-17T16:52:49.264Z,99797.66
2023-04-17T16:55:15.944Z,99799.50
2023-04-17T16:57:43.577Z,99801.78
2023-04-17T17:00:11.392Z,99800.81
2023-04-17T17:02:38.058Z,99801.84
2023-04-17T17:05:05.376Z,99799.56
2023-04-17T17:07:32.003Z,99798.75
2023-04-17T17:09:58.764Z,99803.94
2023-04-17T17:12:25.387Z,99805.94
2023-04-17T17:14:51.982Z,99801.69
2023-04-17T17:17:20.071Z,99805.22
2023-04-17T17:19:46.704Z,99799.69
2023-04-17T17:22:13.335Z,99797.63
2023-04-17T17:24:39.952Z,99803.63
2023-04-17T17:27:06.576Z,99800.44
2023-04-17T17:29:33.327Z,99798.03
2023-04-17T17:31:59.956Z,99799.28
2023-04-17T17:34:27.415Z,99801.47
2023-04-17T17:36:54.315Z,99794.53
2023-04-17T17:39:23.318Z,99797.88
2023-04-17T17:41:50.057Z,99800.31
2023-04-17T17:44:16.976Z,99802.72
2023-04-17T17:46:43.852Z,99810.00
2023-04-17T17:49:10.506Z,99808.53
2023-04-17T17:51:37.145Z,99810.00
2023-04-17T17:54:03.968Z,99809.16
2023-04-17T17:56:30.660Z,99807.47
2023-04-17T17:58:57.289Z,99815.25
2023-04-17T18:01:24.002Z,99816.97
2023-04-17T18:03:50.782Z,99809.22
2023-04-17T18:06:17.574Z,99817.41
2023-04-17T18:08:44.194Z,99819.94
2023-04-17T18:11:10.815Z,99822.47
2023-04-17T18:13:37.569Z,99823.44
2023-04-17T18:16:04.500Z,99825.94
2023-04-17T18:18:31.222Z,99821.75
2023-04-17T18:20:57.861Z,99822.69
2023-04-17T18:23:24.546Z,99826.25
2023-04-17T18:26:01.494Z,99825.63
2023-04-17T18:28:28.975Z,99828.53
2023-04-17T18:30:55.631Z,99827.44
2023-04-17T18:33:22.391Z,99828.78
2023-04-17T18:35:48.987Z,99832.97
2023-04-17T18:38:15.697Z,99831.22
2023-04-17T18:40:42.333Z,99834.25
2023-04-17T18:43:08.975Z,99830.31
2023-04-17T18:45:37.776Z,99831.66
2023-04-17T18:48:04.747Z,99834.31
2023-04-17T18:50:31.458Z,99838.69
2023-04-17T18:52:58.037Z,99832.50
2023-04-17T18:55:24.716Z,99837.50
2023-04-17T18:57:51.447Z,99843.56
2023-04-17T19:00:18.189Z,99848.91
2023-04-17T19:02:45.208Z,99846.34
2023-04-17T19:05:11.963Z,99852.00
2023-04-17T19:07:38.590Z,99851.00
2023-04-17T19:10:05.778Z,99851.25
2023-04-17T19:12:32.430Z,99861.81
2023-04-17T19:14:59.130Z,99853.50
2023-04-17T19:17:25.778Z,99852.41
2023-04-17T19:19:52.411Z,99856.50
2023-04-17T19:22:19.057Z,99858.50
2023-04-17T19:24:45.670Z,99851.13
2023-04-17T19:27:12.328Z,99856.28
2023-04-17T19:29:38.988Z,99852.00
2023-04-17T19:32:05.664Z,99857.13
2023-04-17T19:34:32.360Z,99858.69
2023-04-17T19:36:59.019Z,99863.53
2023-04-17T19:39:27.155Z,99852.47
2023-04-17T19:41:53.730Z,99853.25
2023-04-17T19:44:20.430Z,99852.56
2023-04-17T19:46:47.279Z,99846.84
2023-04-17T19:49:14.315Z,99848.22
2023-04-17T19:51:41.227Z,99841.41
2023-04-17T19:54:07.841Z,99848.56
2023-04-17T19:56:34.468Z,99848.97
2023-04-17T19:59:02.184Z,99838.63
2023-04-17T20:01:30.302Z,99843.06
2023-04-17T20:03:57.667Z,99841.97
2023-04-17T20:06:24.846Z,99845.25
2023-04-17T20:08:51.449Z,99845.28
2023-04-17T20:11:18.051Z,99843.69
2023-04-17T20:13:46.352Z,99851.47
2023-04-17T20:16:12.979Z,99850.66
2023-04-17T20:18:39.653Z,99851.63
2023-04-17T20:21:06.244Z,99853.75
2023-04-17T20:23:33.435Z,99856.56
2023-04-17T20:26:00.153Z,99846.41
2023-04-17T20:28:26.718Z,99866.22
2023-04-17T20:30:53.396Z,99870.00
2023-04-17T20:33:20.207Z,99864.28
2023-04-17T20:35:46.845Z,99868.13
2023-04-17T20:38:13.500Z,99863.19
2023-04-17T20:40:40.149Z,99868.78
2023-04-17T20:43:07.163Z,99867.44
2023-04-17T20:45:34.932Z,99876.59
2023-04-17T20:48:01.583Z,99871.09
2023-04-17T20:50:28.350Z,99878.00
2023-04-17T20:52:55.026Z,99874.53
2023-04-17T20:55:24.533Z,99877.53
2023-04-17T20:57:51.222Z,99886.56
2023-04-17T21:00:17.974Z,99880.47
2023-04-17T21:02:44.710Z,99883.41
2023-04-17T21:05:11.395Z,99886.75
2023-04-17T21:07:38.298Z,99894.97
2023-04-17T21:10:05.470Z,99895.22
2023-04-17T21:12:32.109Z,99898.38
2023-04-17T21:14:58.707Z,99889.28
2023-04-17T21:17:25.392Z,99892.31
2023-04-17T21:19:52.281Z,99886.00
2023-04-17T21:22:19.046Z,99900.06
2023-04-17T21:24:45.662Z,99895.69
2023-04-17T21:27:12.335Z,99893.09
2023-04-17T21:29:38.952Z,99889.31
2023-04-17T21:32:05.740Z,99888.34
2023-04-17T21:34:32.418Z,99887.94
2023-04-17T21:37:00.119Z,99890.34
2023-04-17T21:39:26.781Z,99888.75
2023-04-17T21:41:53.400Z,99892.50
2023-04-17T21:44:20.042Z,99886.41
2023-04-17T21:46:46.665Z,99885.69
2023-04-17T21:49:13.404Z,99891.53
2023-04-17T21:51:40.098Z,99888.22
2023-04-17T21:54:08.440Z,99895.22
2023-04-17T21:56:35.662Z,99887.56
2023-04-17T21:59:02.380Z,99888.34
2023-04-17T22:01:29.150Z,99884.50
2023-04-17T22:03:55.797Z,99882.09
2023-04-17T22:06:22.401Z,99888.34
2023-04-17T22:08:49.059Z,99886.88
2023-04-17T22:11:15.675Z,99885.00
2023-04-17T22:13:42.254Z,99889.31
2023-04-17T22:16:08.917Z,99889.78
2023-04-17T22:18:35.633Z,99888.38
2023-04-17T22:21:02.268Z,99880.66
2023-04-17T22:23:28.981Z,99884.22
2023-04-17T22:25:55.587Z,99887.03
2023-04-17T22:28:22.204Z,99888.72
2023-04-17T22:30:52.003Z,99885.41
2023-04-17T22:33:18.669Z,99891.47
2023-04-17T22:35:45.274Z,99886.19
2023-04-17T22:38:11.917Z,99889.13
2023-04-17T22:40:38.525Z,99895.34
2023-04-17T22:43:05.122Z,99896.72
2023-04-17T22:45:31.979Z,99893.09
2023-04-17T22:47:58.766Z,99895.06
2023-04-17T22:50:25.624Z,99896.75
2023-04-17T22:52:52.320Z,99897.47
2023-04-17T22:55:18.978Z,99896.56
2023-04-17T22:57:45.683Z,99901.94
2023-04-17T23:00:12.847Z,99893.31
2023-04-17T23:02:39.520Z,99900.59
2023-04-17T23:05:07.123Z,99897.09
2023-04-17T23:07:34.002Z,99897.66
2023-04-17T23:10:00.686Z,99900.44
2023-04-17T23:12:27.328Z,99896.31
2023-04-17T23:14:53.952Z,99905.34
2023-04-17T23:17:20.700Z,99902.06
2023-04-17T23:19:47.364Z,99895.38
2023-04-17T23:22:14.029Z,99901.28
2023-04-17T23:24:40.726Z,99894.78
2023-04-17T23:27:10.131Z,99893.03
2023-04-17T23:29:36.787Z,99895.78
2023-04-17T23:32:03.538Z,99892.66
2023-04-17T23:34:30.211Z,99891.63
2023-04-17T23:36:56.847Z,99888.56
2023-04-17T23:39:23.817Z,99889.00
2023-04-17T23:41:50.494Z,99886.50
2023-04-17T23:44:17.091Z,99888.94
2023-04-17T23:46:43.745Z,99884.06
2023-04-17T23:49:10.379Z,99888.75
2023-04-17T23:51:37.086Z,99886.06
2023-04-17T23:54:03.815Z,99895.66
2023-04-17T23:56:30.505Z,99890.81
2023-04-17T23:58:57.592Z,99889.53
